createdAt,value
2018-09-06T00:01:42.417Z,71.89
2018-09-06T00:04:11.081Z,71.81
2018-09-06T00:06:39.827Z,72.15
2018-09-06T00:09:09.585Z,72.30
2018-09-06T00:11:38.261Z,72.39
2018-09-06T00:14:06.968Z,72.45
2018-09-06T00:16:35.678Z,72.80
2018-09-06T00:19:04.347Z,72.39
2018-09-06T00:21:33.015Z,72.87
2018-09-06T00:24:01.679Z,72.35
2018-09-06T00:26:30.340Z,72.31
2018-09-06T00:28:59.035Z,72.96
2018-09-06T00:31:27.724Z,72.63
2018-09-06T00:33:56.362Z,72.42
2018-09-06T00:36:25.015Z,72.54
2018-09-06T00:38:53.687Z,72.68
2018-09-06T00:41:22.361Z,72.37
2018-09-06T00:43:51.033Z,72.58
2018-09-06T00:46:19.845Z,73.01
2018-09-06T00:48:48.527Z,72.79
2018-09-06T00:51:17.329Z,72.66
2018-09-06T00:53:46.043Z,72.77
2018-09-06T00:56:14.708Z,72.49
2018-09-06T00:58:43.415Z,72.59
2018-09-06T01:01:12.120Z,72.42
2018-09-06T01:03:40.811Z,72.39
2018-09-06T01:06:09.467Z,72.68
2018-09-06T01:08:38.168Z,72.74
2018-09-06T01:11:06.837Z,72.55
2018-09-06T01:13:35.567Z,72.50
2018-09-06T01:16:04.239Z,72.41
2018-09-06T01:18:32.876Z,72.24
2018-09-06T01:21:01.551Z,72.38
2018-09-06T01:23:30.178Z,72.47
2018-09-06T01:25:58.891Z,72.46
2018-09-06T01:28:27.525Z,72.62
2018-09-06T01:30:56.174Z,72.67
2018-09-06T01:33:24.852Z,72.55
2018-09-06T01:35:58.879Z,72.96
2018-09-06T01:38:27.556Z,72.92
2018-09-06T01:40:56.266Z,73.07
2018-09-06T01:43:24.978Z,73.16
2018-09-06T01:45:53.735Z,73.03
2018-09-06T01:48:22.440Z,72.65
2018-09-06T01:50:52.671Z,72.97
2018-09-06T01:53:21.350Z,72.96
2018-09-06T01:55:50.052Z,72.92
2018-09-06T01:58:18.763Z,73.48
2018-09-06T02:00:47.425Z,73.43
2018-09-06T02:03:16.131Z,73.65
2018-09-06T02:05:44.936Z,73.63
2018-09-06T02:08:13.584Z,73.42
2018-09-06T02:10:42.240Z,73.51
2018-09-06T02:13:10.895Z,73.42
2018-09-06T02:15:39.566Z,73.42
2018-09-06T02:18:08.200Z,73.44
2018-09-06T02:20:36.872Z,73.59
2018-09-06T02:23:05.579Z,73.41
2018-09-06T02:25:34.333Z,73.62
2018-09-06T02:28:03.014Z,73.38
2018-09-06T02:30:31.709Z,73.73
2018-09-06T02:33:00.365Z,73.75
2018-09-06T02:35:29.087Z,73.66
2018-09-06T02:37:57.743Z,72.65
2018-09-06T02:40:40.907Z,72.97
2018-09-06T02:43:13.488Z,72.82
2018-09-06T02:45:43.517Z,72.61
2018-09-06T02:48:12.239Z,72.63
2018-09-06T02:50:46.193Z,73.21
2018-09-06T02:53:14.846Z,72.87
2018-09-06T02:55:43.783Z,72.99
2018-09-06T02:58:12.534Z,73.26
2018-09-06T03:00:41.259Z,72.67
2018-09-06T03:03:10.024Z,72.28
2018-09-06T03:05:38.736Z,72.81
2018-09-06T03:08:07.420Z,72.61
2018-09-06T03:10:42.109Z,72.44
2018-09-06T03:13:10.754Z,72.68
2018-09-06T03:15:39.420Z,72.78
2018-09-06T03:18:08.193Z,72.90
2018-09-06T03:20:37.151Z,73.28
2018-09-06T03:23:06.623Z,73.21
2018-09-06T03:25:35.391Z,73.12
2018-09-06T03:28:04.473Z,72.54
2018-09-06T03:30:33.363Z,72.35
2018-09-06T03:33:02.043Z,72.50
2018-09-06T03:35:30.654Z,72.66
2018-09-06T03:37:59.354Z,72.52
2018-09-06T03:40:27.992Z,72.64
2018-09-06T03:42:56.717Z,72.17
2018-09-06T03:45:25.509Z,72.51
2018-09-06T03:47:54.163Z,72.81
2018-09-06T03:50:22.803Z,73.24
2018-09-06T03:52:51.585Z,73.37
2018-09-06T03:55:20.349Z,73.60
2018-09-06T03:57:49.039Z,74.07
2018-09-06T04:00:17.712Z,74.44
2018-09-06T04:02:46.371Z,74.78
2018-09-06T04:05:14.999Z,75.36
2018-09-06T04:07:43.627Z,75.17
2018-09-06T04:10:12.320Z,74.93
2018-09-06T04:12:41.323Z,75.50
2018-09-06T04:15:09.961Z,75.25
2018-09-06T04:17:38.620Z,75.60
2018-09-06T04:20:07.307Z,75.43
2018-09-06T04:22:40.087Z,75.80
2018-09-06T04:25:08.838Z,75.14
2018-09-06T04:27:37.522Z,74.04
2018-09-06T04:30:06.336Z,73.71
2018-09-06T04:32:34.961Z,73.64
2018-09-06T04:35:03.620Z,73.82
2018-09-06T04:37:32.306Z,73.28
2018-09-06T04:40:00.978Z,73.22
2018-09-06T04:42:29.703Z,73.48
2018-09-06T04:44:58.362Z,73.01
2018-09-06T04:47:27.154Z,73.28
2018-09-06T04:49:55.775Z,73.35
2018-09-06T04:52:24.877Z,73.07
2018-09-06T04:54:53.584Z,73.04
2018-09-06T04:57:22.249Z,73.01
2018-09-06T04:59:50.967Z,72.21
2018-09-06T05:02:21.679Z,72.42
2018-09-06T05:04:50.411Z,72.69
2018-09-06T05:07:19.496Z,72.67
2018-09-06T05:09:48.269Z,72.37
2018-09-06T05:12:16.977Z,72.43
2018-09-06T05:14:45.646Z,72.15
2018-09-06T05:17:14.304Z,72.26
2018-09-06T05:19:42.936Z,72.63
2018-09-06T05:22:11.711Z,72.54
2018-09-06T05:24:40.381Z,72.24
2018-09-06T05:27:09.111Z,71.92
2018-09-06T05:29:37.737Z,72.29
2018-09-06T05:32:06.415Z,72.60
2018-09-06T05:34:35.185Z,72.71
2018-09-06T05:37:03.873Z,72.44
2018-09-06T05:39:32.559Z,72.57
2018-09-06T05:42:01.278Z,72.45
2018-09-06T05:44:29.947Z,72.43
2018-09-06T05:46:58.683Z,72.45
2018-09-06T05:49:27.428Z,72.83
2018-09-06T05:51:56.112Z,72.58
2018-09-06T05:54:24.798Z,72.22
2018-09-06T05:56:53.486Z,72.17
2018-09-06T05:59:22.224Z,71.62
2018-09-06T06:01:50.891Z,71.22
2018-09-06T06:04:19.504Z,71.37
2018-09-06T06:06:48.163Z,70.80
2018-09-06T06:09:16.850Z,70.44
2018-09-06T06:11:45.665Z,70.22
2018-09-06T06:14:14.324Z,70.67
2018-09-06T06:16:43.107Z,70.15
2018-09-06T06:19:11.787Z,68.83
2018-09-06T06:21:40.426Z,69.16
2018-09-06T06:24:09.116Z,68.49
2018-09-06T06:26:37.754Z,68.18
2018-09-06T06:29:06.526Z,67.47
2018-09-06T06:31:35.183Z,67.86
2018-09-06T06:34:03.976Z,67.26
2018-09-06T06:36:32.614Z,67.10
2018-09-06T06:39:01.259Z,67.69
2018-09-06T06:41:29.960Z,68.15
2018-09-06T06:43:58.625Z,68.61
2018-09-06T06:46:27.264Z,69.32
2018-09-06T06:48:55.912Z,69.44
2018-09-06T06:51:24.599Z,69.25
2018-09-06T06:53:53.350Z,69.06
2018-09-06T06:56:22.049Z,68.83
2018-09-06T06:58:50.732Z,68.99
2018-09-06T07:01:19.443Z,68.39
2018-09-06T07:03:48.154Z,68.41
2018-09-06T07:06:16.806Z,68.78
2018-09-06T07:08:45.471Z,68.18
2018-09-06T07:11:14.196Z,68.62
2018-09-06T07:13:42.960Z,68.83
2018-09-06T07:16:11.568Z,67.51
2018-09-06T07:18:40.280Z,66.43
2018-09-06T07:21:08.988Z,66.71
2018-09-06T07:23:37.611Z,67.85
2018-09-06T07:26:06.355Z,68.43
2018-09-06T07:28:35.027Z,68.39
2018-09-06T07:31:03.730Z,68.48
2018-09-06T07:33:32.431Z,68.23
2018-09-06T07:36:01.086Z,67.68
2018-09-06T07:38:29.829Z,68.04
2018-09-06T07:40:58.489Z,67.21
2018-09-06T07:43:27.191Z,66.97
2018-09-06T07:45:55.916Z,65.55
2018-09-06T07:48:24.620Z,65.42
2018-09-06T07:50:53.328Z,65.19
2018-09-06T07:53:21.990Z,64.58
2018-09-06T07:55:50.712Z,63.60
2018-09-06T07:58:19.368Z,62.96
2018-09-06T08:00:48.039Z,63.05
2018-09-06T08:03:16.742Z,63.47
2018-09-06T08:05:45.429Z,63.18
2018-09-06T08:08:14.188Z,62.23
2018-09-06T08:10:42.865Z,61.93
2018-09-06T08:13:11.513Z,61.71
2018-09-06T08:15:40.179Z,60.94
2018-09-06T08:18:08.888Z,60.92
2018-09-06T08:20:37.636Z,61.34
2018-09-06T08:23:06.548Z,61.91
2018-09-06T08:25:35.243Z,61.69
2018-09-06T08:28:03.929Z,61.42
2018-09-06T08:30:32.747Z,61.10
2018-09-06T08:33:01.527Z,60.63
2018-09-06T08:35:30.179Z,58.82
2018-09-06T08:37:58.928Z,59.45
2018-09-06T08:40:27.593Z,59.17
2018-09-06T08:42:56.309Z,59.43
2018-09-06T08:45:25.054Z,58.96
2018-09-06T08:47:53.694Z,57.61
2018-09-06T08:50:22.358Z,57.30
2018-09-06T08:52:51.018Z,57.14
2018-09-06T08:55:19.775Z,56.43
2018-09-06T08:57:48.543Z,57.99
2018-09-06T09:00:17.274Z,56.15
2018-09-06T09:02:45.965Z,56.10
2018-09-06T09:05:14.632Z,56.86
2018-09-06T09:07:43.388Z,57.15
2018-09-06T09:10:12.061Z,58.44
2018-09-06T09:12:40.791Z,55.34
2018-09-06T09:15:09.508Z,54.80
2018-09-06T09:17:38.188Z,54.76
2018-09-06T09:20:07.022Z,52.55
2018-09-06T09:22:35.702Z,51.83
2018-09-06T09:25:04.446Z,52.20
2018-09-06T09:27:33.129Z,52.83
2018-09-06T09:30:01.849Z,52.83
2018-09-06T09:32:30.574Z,53.33
2018-09-06T09:34:59.266Z,53.40
2018-09-06T09:37:28.025Z,52.18
2018-09-06T09:39:57.330Z,51.94
2018-09-06T09:42:26.647Z,51.54
2018-09-06T09:44:55.345Z,49.62
2018-09-06T09:49:52.504Z,49.10
2018-09-06T09:52:21.909Z,48.98
2018-09-06T09:54:50.593Z,49.62
2018-09-06T09:57:19.309Z,51.68
2018-09-06T09:59:47.983Z,49.94
2018-09-06T10:02:21.760Z,50.99
2018-09-06T10:05:00.445Z,49.97
2018-09-06T10:07:34.314Z,50.34
2018-09-06T10:10:03.009Z,50.42
2018-09-06T10:12:31.682Z,49.42
2018-09-06T10:15:00.357Z,50.04
2018-09-06T10:17:29.042Z,50.91
2018-09-06T10:19:58.612Z,49.59
2018-09-06T10:22:27.384Z,48.25
2018-09-06T10:24:56.792Z,48.07
2018-09-06T10:27:25.501Z,45.45
2018-09-06T10:29:54.195Z,45.89
2018-09-06T10:32:22.885Z,46.67
2018-09-06T10:34:51.613Z,47.25
2018-09-06T10:37:20.259Z,47.68
2018-09-06T10:39:49.035Z,46.21
2018-09-06T10:42:17.782Z,44.56
2018-09-06T10:44:46.475Z,43.54
2018-09-06T10:47:15.179Z,43.74
2018-09-06T10:49:43.855Z,42.01
2018-09-06T10:52:12.509Z,42.17
2018-09-06T10:54:41.216Z,42.95
2018-09-06T10:57:09.989Z,44.26
2018-09-06T10:59:38.690Z,44.08
2018-09-06T11:02:07.445Z,45.34
2018-09-06T11:04:36.260Z,43.90
2018-09-06T11:07:05.013Z,43.35
2018-09-06T11:09:33.691Z,43.22
2018-09-06T11:12:02.311Z,42.67
2018-09-06T11:14:31.032Z,43.97
2018-09-06T11:16:59.821Z,43.74
2018-09-06T11:19:28.515Z,46.18
2018-09-06T11:22:28.271Z,44.76
2018-09-06T11:24:57.287Z,43.59
2018-09-06T11:27:25.997Z,41.21
2018-09-06T11:29:54.646Z,40.67
2018-09-06T11:32:23.277Z,41.32
2018-09-06T11:34:52.006Z,40.60
2018-09-06T11:37:20.705Z,39.88
2018-09-06T11:39:49.407Z,38.31
2018-09-06T11:42:18.090Z,39.90
2018-09-06T11:44:46.749Z,41.01
2018-09-06T11:47:15.536Z,41.11
2018-09-06T11:49:44.223Z,42.33
2018-09-06T11:52:12.932Z,43.51
2018-09-06T11:54:41.595Z,44.14
2018-09-06T11:57:10.456Z,44.56
2018-09-06T11:59:39.166Z,44.65
2018-09-06T12:02:07.948Z,45.15
2018-09-06T12:04:36.605Z,45.67
2018-09-06T12:07:05.284Z,45.21
2018-09-06T12:09:33.966Z,45.75
2018-09-06T12:12:02.650Z,45.55
2018-09-06T12:14:31.334Z,46.51
2018-09-06T12:17:00.287Z,46.65
2018-09-06T12:19:29.044Z,49.06
2018-09-06T12:21:57.691Z,48.75
2018-09-06T12:24:26.358Z,49.56
2018-09-06T12:26:55.042Z,50.47
2018-09-06T12:29:23.730Z,50.36
2018-09-06T12:31:52.430Z,49.85
2018-09-06T12:34:21.089Z,49.49
2018-09-06T12:36:49.814Z,49.66
2018-09-06T12:39:19.134Z,48.74
2018-09-06T12:41:47.877Z,48.07
2018-09-06T12:44:16.541Z,47.64
2018-09-06T12:46:45.289Z,47.26
2018-09-06T12:49:13.945Z,46.57
2018-09-06T12:51:42.685Z,47.18
2018-09-06T12:54:11.326Z,47.48
2018-09-06T12:56:40.143Z,47.31
2018-09-06T12:59:08.783Z,47.91
2018-09-06T13:01:37.442Z,49.69
2018-09-06T13:04:06.172Z,51.10
2018-09-06T13:06:34.830Z,52.65
2018-09-06T13:09:05.050Z,53.59
2018-09-06T13:11:33.709Z,53.48
2018-09-06T13:14:02.543Z,53.09
2018-09-06T13:16:31.184Z,53.64
2018-09-06T13:18:59.832Z,54.31
2018-09-06T13:21:28.505Z,53.23
2018-09-06T13:23:57.231Z,53.08
2018-09-06T13:26:25.937Z,50.83
2018-09-06T13:28:54.738Z,50.52
2018-09-06T13:31:23.474Z,50.93
2018-09-06T13:33:52.118Z,50.94
2018-09-06T13:36:20.762Z,51.98
2018-09-06T13:38:49.439Z,52.62
2018-09-06T13:41:18.077Z,52.01
2018-09-06T13:43:46.721Z,52.79
2018-09-06T13:46:15.382Z,53.57
2018-09-06T13:48:44.054Z,53.97
2018-09-06T13:51:12.695Z,52.30
2018-09-06T13:53:41.335Z,50.60
2018-09-06T13:56:10.105Z,50.56
2018-09-06T13:58:39.037Z,49.34
2018-09-06T14:01:07.696Z,47.04
2018-09-06T14:03:36.343Z,42.66
2018-09-06T14:06:05.012Z,42.02
2018-09-06T14:08:33.810Z,40.62
2018-09-06T14:11:02.467Z,38.91
2018-09-06T14:13:31.108Z,38.55
2018-09-06T14:15:59.885Z,38.68
2018-09-06T14:18:28.611Z,37.11
2018-09-06T14:20:57.306Z,37.42
2018-09-06T14:23:25.994Z,39.28
2018-09-06T14:25:54.599Z,39.59
2018-09-06T14:28:23.254Z,41.34
2018-09-06T14:30:51.953Z,41.86
2018-09-06T14:33:20.601Z,42.45
2018-09-06T14:35:49.271Z,43.94
2018-09-06T14:38:18.080Z,43.73
2018-09-06T14:40:46.679Z,44.33
2018-09-06T14:43:15.306Z,45.43
2018-09-06T14:45:43.975Z,46.85
2018-09-06T14:48:12.694Z,47.27
2018-09-06T14:50:42.411Z,47.94
2018-09-06T14:53:11.103Z,47.12
2018-09-06T14:55:39.757Z,45.78
2018-09-06T14:58:08.402Z,45.01
2018-09-06T15:00:37.062Z,45.03
2018-09-06T15:03:05.749Z,44.02
2018-09-06T15:05:34.385Z,43.37
2018-09-06T15:08:03.037Z,43.44
2018-09-06T15:10:31.683Z,42.89
2018-09-06T15:13:00.474Z,42.70
2018-09-06T15:15:29.171Z,41.61
2018-09-06T15:17:57.854Z,40.74
2018-09-06T15:20:26.503Z,40.18
2018-09-06T15:22:55.169Z,41.56
2018-09-06T15:25:23.830Z,43.01
2018-09-06T15:27:52.533Z,43.47
2018-09-06T15:30:21.180Z,42.03
2018-09-06T15:32:49.811Z,43.56
2018-09-06T15:35:18.491Z,43.04
2018-09-06T15:37:47.238Z,42.37
2018-09-06T15:40:15.874Z,42.50
2018-09-06T15:42:44.596Z,41.28
2018-09-06T15:45:13.281Z,41.18
2018-09-06T15:47:41.942Z,42.00
2018-09-06T15:50:10.641Z,41.83
2018-09-06T15:52:39.289Z,42.77
2018-09-06T15:55:08.799Z,41.43
2018-09-06T15:57:37.478Z,41.72
2018-09-06T16:00:07.015Z,42.62
2018-09-06T16:02:35.715Z,41.29
2018-09-06T16:05:04.501Z,41.04
2018-09-06T16:07:33.311Z,42.35
2018-09-06T16:10:02.065Z,42.57
2018-09-06T16:12:30.823Z,42.83
2018-09-06T16:14:59.554Z,43.13
2018-09-06T16:17:28.202Z,44.04
2018-09-06T16:19:57.034Z,44.58
2018-09-06T16:22:25.767Z,44.78
2018-09-06T16:24:54.425Z,46.30
2018-09-06T16:27:23.071Z,47.30
2018-09-06T16:29:51.808Z,47.90
2018-09-06T16:32:20.534Z,49.50
2018-09-06T16:34:49.210Z,49.75
2018-09-06T16:37:17.940Z,50.21
2018-09-06T16:39:46.605Z,50.98
2018-09-06T16:42:15.293Z,50.87
2018-09-06T16:44:43.990Z,51.03
2018-09-06T16:47:12.766Z,51.66
2018-09-06T16:49:41.541Z,51.72
2018-09-06T16:52:10.252Z,52.04
2018-09-06T16:54:38.961Z,52.31
2018-09-06T16:57:07.710Z,52.83
2018-09-06T16:59:36.405Z,52.32
2018-09-06T17:02:05.186Z,52.19
2018-09-06T17:04:33.938Z,53.12
2018-09-06T17:07:02.705Z,53.30
2018-09-06T17:09:31.396Z,53.33
2018-09-06T17:12:00.068Z,53.83
2018-09-06T17:14:28.801Z,54.58
2018-09-06T17:16:57.465Z,54.97
2018-09-06T17:19:26.114Z,55.14
2018-09-06T17:21:54.865Z,55.63
2018-09-06T17:24:23.622Z,56.02
2018-09-06T17:26:52.294Z,56.41
2018-09-06T17:29:20.946Z,56.36
2018-09-06T17:31:49.682Z,57.06
2018-09-06T17:34:18.331Z,56.72
2018-09-06T17:36:47.002Z,56.39
2018-09-06T17:39:15.834Z,57.40
2018-09-06T17:41:44.546Z,57.68
2018-09-06T17:44:13.273Z,58.07
2018-09-06T17:46:42.094Z,57.89
2018-09-06T17:49:10.763Z,58.22
2018-09-06T17:51:39.806Z,58.29
2018-09-06T17:54:08.602Z,58.40
2018-09-06T17:56:37.324Z,58.42
2018-09-06T17:59:06.234Z,58.33
2018-09-06T18:01:38.282Z,58.68
2018-09-06T18:04:07.552Z,59.07
2018-09-06T18:06:36.316Z,59.01
2018-09-06T18:09:08.748Z,58.82
2018-09-06T18:11:37.551Z,59.17
2018-09-06T18:14:06.486Z,59.78
2018-09-06T18:16:35.132Z,59.43
2018-09-06T18:19:03.930Z,59.55
2018-09-06T18:21:32.635Z,59.49
2018-09-06T18:24:01.377Z,59.68
2018-09-06T18:26:30.087Z,60.00
2018-09-06T18:28:59.146Z,59.71
2018-09-06T18:31:27.902Z,59.65
2018-09-06T18:33:56.551Z,59.67
2018-09-06T18:36:25.368Z,60.07
2018-09-06T18:38:54.151Z,59.27
2018-09-06T18:41:22.898Z,59.75
2018-09-06T18:43:51.530Z,59.95
2018-09-06T18:46:20.182Z,59.98
2018-09-06T18:48:48.868Z,60.24
2018-09-06T18:51:17.610Z,60.09
2018-09-06T18:53:46.403Z,60.07
2018-09-06T18:56:15.079Z,60.00
2018-09-06T18:58:43.775Z,60.01
2018-09-06T19:01:12.454Z,60.12
2018-09-06T19:03:41.102Z,60.18
2018-09-06T19:06:09.756Z,60.19
2018-09-06T19:08:38.470Z,60.62
2018-09-06T19:11:07.334Z,60.67
2018-09-06T19:13:36.032Z,60.71
2018-09-06T19:16:04.702Z,60.45
2018-09-06T19:18:33.414Z,60.69
2018-09-06T19:21:02.113Z,60.66
2018-09-06T19:23:30.842Z,60.81
2018-09-06T19:25:59.771Z,60.89
2018-09-06T19:28:28.505Z,61.02
2018-09-06T19:30:57.188Z,61.03
2018-09-06T19:33:25.907Z,61.27
2018-09-06T19:35:54.530Z,61.28
2018-09-06T19:38:23.155Z,61.43
2018-09-06T19:40:51.893Z,61.26
2018-09-06T19:43:20.567Z,61.36
2018-09-06T19:45:49.271Z,61.42
2018-09-06T19:48:17.998Z,61.37
2018-09-06T19:50:46.729Z,61.22
2018-09-06T19:53:15.398Z,61.12
2018-09-06T19:55:44.338Z,61.49
2018-09-06T19:58:13.007Z,61.01
2018-09-06T20:00:41.674Z,61.03
2018-09-06T20:03:10.294Z,60.76
2018-09-06T20:05:39.078Z,60.72
2018-09-06T20:08:07.822Z,60.92
2018-09-06T20:10:36.551Z,60.70
2018-09-06T20:13:05.475Z,60.74
2018-09-06T20:15:34.168Z,60.89
2018-09-06T20:18:02.856Z,61.35
2018-09-06T20:20:31.515Z,61.29
2018-09-06T20:23:00.184Z,61.11
2018-09-06T20:25:28.859Z,61.29
2018-09-06T20:27:57.849Z,61.56
2018-09-06T20:30:26.615Z,61.21
2018-09-06T20:32:55.276Z,61.65
2018-09-06T20:35:23.962Z,61.82
2018-09-06T20:37:53.399Z,62.05
2018-09-06T20:40:22.151Z,62.45
2018-09-06T20:42:50.863Z,62.40
2018-09-06T20:45:19.575Z,63.07
2018-09-06T20:47:48.319Z,62.73
2018-09-06T20:50:16.990Z,62.61
2018-09-06T20:52:45.781Z,62.91
2018-09-06T20:55:14.486Z,62.79
2018-09-06T20:57:43.110Z,63.25
2018-09-06T21:00:12.037Z,63.44
2018-09-06T21:02:40.872Z,63.15
2018-09-06T21:05:10.263Z,63.65
2018-09-06T21:07:38.947Z,63.42
2018-09-06T21:10:07.625Z,63.43
2018-09-06T21:12:36.290Z,63.46
2018-09-06T21:15:05.061Z,63.07
2018-09-06T21:17:33.744Z,63.20
2018-09-06T21:20:02.498Z,63.76
2018-09-06T21:22:31.176Z,63.81
2018-09-06T21:24:59.924Z,63.95
2018-09-06T21:27:28.629Z,63.95
2018-09-06T21:29:57.365Z,63.83
2018-09-06T21:32:26.053Z,64.13
2018-09-06T21:34:54.814Z,63.93
2018-09-06T21:37:23.506Z,63.95
2018-09-06T21:39:52.250Z,63.97
2018-09-06T21:42:21.942Z,63.79
2018-09-06T21:44:50.613Z,63.98
2018-09-06T21:47:19.245Z,64.31
2018-09-06T21:49:47.924Z,63.81
2018-09-06T21:52:16.583Z,64.31
2018-09-06T21:54:45.290Z,64.00
2018-09-06T21:57:13.934Z,64.22
2018-09-06T21:59:42.560Z,64.02
2018-09-06T22:02:15.326Z,64.28
2018-09-06T22:04:44.955Z,63.85
2018-09-06T22:07:13.653Z,64.30
2018-09-06T22:09:42.322Z,64.59
2018-09-06T22:12:17.078Z,65.58
2018-09-06T22:14:46.898Z,65.66
2018-09-06T22:17:15.891Z,65.77
2018-09-06T22:19:44.725Z,66.48
2018-09-06T22:22:13.495Z,66.39
2018-09-06T22:24:42.669Z,67.36
2018-09-06T22:27:11.363Z,67.23
2018-09-06T22:29:40.116Z,67.49
2018-09-06T22:32:08.798Z,67.42
2018-09-06T22:34:37.545Z,67.66
2018-09-06T22:37:06.240Z,68.17
2018-09-06T22:39:35.028Z,68.39
2018-09-06T22:42:03.699Z,68.42
2018-09-06T22:44:32.306Z,68.99
2018-09-06T22:47:00.986Z,68.96
2018-09-06T22:49:29.611Z,68.97
2018-09-06T22:51:58.278Z,69.32
2018-09-06T22:54:26.920Z,70.24
2018-09-06T22:56:55.707Z,70.26
2018-09-06T22:59:24.423Z,69.73
2018-09-06T23:01:53.104Z,70.36
2018-09-06T23:04:21.776Z,70.50
2018-09-06T23:06:50.414Z,71.17
2018-09-06T23:09:20.650Z,70.84
2018-09-06T23:11:49.315Z,71.89
2018-09-06T23:14:17.994Z,72.29
2018-09-06T23:16:48.878Z,72.51
2018-09-06T23:19:21.247Z,72.36
2018-09-06T23:21:49.972Z,72.58
2018-09-06T23:24:19.008Z,72.79
2018-09-06T23:26:48.038Z,72.22
2018-09-06T23:29:16.692Z,72.00
2018-09-06T23:31:45.340Z,72.42
2018-09-06T23:34:14.417Z,72.83
2018-09-06T23:36:43.057Z,72.69
2018-09-06T23:39:11.743Z,73.38
2018-09-06T23:41:41.211Z,73.22
2018-09-06T23:44:10.392Z,73.72
2018-09-06T23:46:39.066Z,73.62
2018-09-06T23:49:07.751Z,73.81
2018-09-06T23:51:36.776Z,74.08
2018-09-06T23:54:07.829Z,74.12
2018-09-06T23:56:36.602Z,74.04
2018-09-06T23:59:05.727Z,74.01
